Anglian Lady — VOLP — position and weather

sailwx.info

Track history (hours):
 
Tides and Currents Weather Stations Pressure Air Temp Water Temp Dewpoint Dewpoint Depression Visibility Wind Speed Wind Dir Waves Ship Positions

Anglian Lady

Last reported at 2017-May-20 12:27 UTC. Time now 2017-May-22 19:29 UTC.
Position N 45°17' W 085°42'.

Length 32 m.

Type: Tug. MMSI: 316002238.

Date/timePositionNaut miles runAvg speedWind from/ knotsBaromVisibWave heightAir tempDewpointWater temp
2017-May-20 12:27N 45°17' W 085°42'3 7.7
2017-May-20 12:00N 45°20' W 085°39'4 7.7
2017-May-20 11:30N 45°23' W 085°36'4 7.7
2017-May-20 11:00N 45°26' W 085°33'4 7.7
2017-May-20 10:30N 45°29' W 085°30'4 7.6
2017-May-20 10:00N 45°32' W 085°26'4 7.6
2017-May-20 09:30N 45°35' W 085°23'4 7.6
2017-May-20 09:00N 45°38' W 085°20'4 7.5
2017-May-20 08:30N 45°41' W 085°16'4 7.5
2017-May-20 08:00N 45°43' W 085°13'4 7.4
2017-May-20 07:30N 45°46' W 085°09'4 7.0
2017-May-20 06:57N 45°50' W 085°07'3 7.5
2017-May-20 06:30N 45°50' W 085°02'4 7.8
2017-May-20 06:00N 45°50' W 084°57'4 7.9
2017-May-20 05:30N 45°49' W 084°51'  
2017-May-17 12:11N 45°51' W 084°26'313.2
2017-May-17 11:59N 45°51' W 084°30'4 7.6
2017-May-17 11:30N 45°51' W 084°35'5 9.7
2017-May-17 11:01N 45°49' W 084°42'4 8.9
2017-May-17 10:30N 45°49' W 084°48'5 9.7
2017-May-17 10:00N 45°49' W 084°55'5 9.8
2017-May-17 09:30N 45°50' W 085°02'4 8.6
2017-May-17 09:00N 45°49' W 085°08'5 9.5
2017-May-17 08:30N 45°44' W 085°10'5 9.5
2017-May-17 08:00N 45°41' W 085°14'5 9.5
2017-May-17 07:30N 45°37' W 085°18'5 9.3
2017-May-17 07:01N 45°33' W 085°22'5 9.3
2017-May-17 06:31N 45°29' W 085°25'5 9.3
2017-May-17 06:00N 45°26' W 085°30'5 9.2
2017-May-17 05:30N 45°22' W 085°33'5 9.2
2017-May-17 05:01N 45°18' W 085°37'5 9.2
2017-May-17 04:31N 45°15' W 085°41'5 9.3
2017-May-17 04:00N 45°11' W 085°45'  
2017-May-13 14:08N 45°18' W 085°42'5 7.7
2017-May-13 13:30N 45°22' W 085°37'7 7.7
2017-May-13 12:36N 45°27' W 085°32'1 7.8
2017-May-13 12:30N 45°28' W 085°31'4 7.7
2017-May-13 11:56N 45°31' W 085°27'3 7.7
2017-May-13 11:30N 45°34' W 085°24'4 7.8
2017-May-13 11:00N 45°37' W 085°21'4 7.7
2017-May-13 10:30N 45°40' W 085°18'4 7.7
2017-May-13 10:00N 45°43' W 085°13'4 7.6
2017-May-13 09:30N 45°45' W 085°09'5 6.8
2017-May-13 08:47N 45°50' W 085°06'3 7.4
2017-May-13 08:24N 45°50' W 085°02'3 7.6
2017-May-13 07:59N 45°50' W 084°58'4 7.6
2017-May-13 07:28N 45°49' W 084°52'  
2017-May-10 15:48N 45°51' W 084°24'3 8.7
2017-May-10 15:29N 45°51' W 084°28'4 8.6
2017-May-10 14:59N 45°51' W 084°34'8 8.3
2017-May-10 14:00N 45°49' W 084°46'4 8.5
2017-May-10 13:30N 45°49' W 084°52'4 8.4
2017-May-10 13:00N 45°49' W 084°58'4 8.5
2017-May-10 12:31N 45°50' W 085°04'  
Track history (hours):
 
Tides and Currents Weather Stations Pressure Air Temp Water Temp Dewpoint Dewpoint Depression Visibility Wind Speed Wind Dir Waves Ship Positions

Anglian Lady

Last reported at 2017-May-20 12:27 UTC. Time now 2017-May-22 19:29 UTC.
Position N 45°17' W 085°42'.

Length 32 m.

Type: Tug. MMSI: 316002238.

Date/timePositionNaut miles runAvg speedWind from/ knotsBaromVisibWave heightAir tempDewpointWater temp
2017-May-20 12:27N 45°17' W 085°42'3 7.7
2017-May-20 12:00N 45°20' W 085°39'4 7.7
2017-May-20 11:30N 45°23' W 085°36'4 7.7
2017-May-20 11:00N 45°26' W 085°33'4 7.7
2017-May-20 10:30N 45°29' W 085°30'4 7.6
2017-May-20 10:00N 45°32' W 085°26'4 7.6
2017-May-20 09:30N 45°35' W 085°23'4 7.6
2017-May-20 09:00N 45°38' W 085°20'4 7.5
2017-May-20 08:30N 45°41' W 085°16'4 7.5
2017-May-20 08:00N 45°43' W 085°13'4 7.4
2017-May-20 07:30N 45°46' W 085°09'4 7.0
2017-May-20 06:57N 45°50' W 085°07'3 7.5
2017-May-20 06:30N 45°50' W 085°02'4 7.8
2017-May-20 06:00N 45°50' W 084°57'4 7.9
2017-May-20 05:30N 45°49' W 084°51'  
2017-May-17 12:11N 45°51' W 084°26'313.2
2017-May-17 11:59N 45°51' W 084°30'4 7.6
2017-May-17 11:30N 45°51' W 084°35'5 9.7
2017-May-17 11:01N 45°49' W 084°42'4 8.9
2017-May-17 10:30N 45°49' W 084°48'5 9.7
2017-May-17 10:00N 45°49' W 084°55'5 9.8
2017-May-17 09:30N 45°50' W 085°02'4 8.6
2017-May-17 09:00N 45°49' W 085°08'5 9.5
2017-May-17 08:30N 45°44' W 085°10'5 9.5
2017-May-17 08:00N 45°41' W 085°14'5 9.5
2017-May-17 07:30N 45°37' W 085°18'5 9.3
2017-May-17 07:01N 45°33' W 085°22'5 9.3
2017-May-17 06:31N 45°29' W 085°25'5 9.3
2017-May-17 06:00N 45°26' W 085°30'5 9.2
2017-May-17 05:30N 45°22' W 085°33'5 9.2
2017-May-17 05:01N 45°18' W 085°37'5 9.2
2017-May-17 04:31N 45°15' W 085°41'5 9.3
2017-May-17 04:00N 45°11' W 085°45'  
2017-May-13 14:08N 45°18' W 085°42'5 7.7
2017-May-13 13:30N 45°22' W 085°37'7 7.7
2017-May-13 12:36N 45°27' W 085°32'1 7.8
2017-May-13 12:30N 45°28' W 085°31'4 7.7
2017-May-13 11:56N 45°31' W 085°27'3 7.7
2017-May-13 11:30N 45°34' W 085°24'4 7.8
2017-May-13 11:00N 45°37' W 085°21'4 7.7
2017-May-13 10:30N 45°40' W 085°18'4 7.7
2017-May-13 10:00N 45°43' W 085°13'4 7.6
2017-May-13 09:30N 45°45' W 085°09'5 6.8
2017-May-13 08:47N 45°50' W 085°06'3 7.4
2017-May-13 08:24N 45°50' W 085°02'3 7.6
2017-May-13 07:59N 45°50' W 084°58'4 7.6
2017-May-13 07:28N 45°49' W 084°52'  
2017-May-10 15:48N 45°51' W 084°24'3 8.7
2017-May-10 15:29N 45°51' W 084°28'4 8.6
2017-May-10 14:59N 45°51' W 084°34'8 8.3
2017-May-10 14:00N 45°49' W 084°46'4 8.5
2017-May-10 13:30N 45°49' W 084°52'4 8.4
2017-May-10 13:00N 45°49' W 084°58'4 8.5
2017-May-10 12:31N 45°50' W 085°04'  

Dump ship's entire track history